Time;durP1;ratioP1;P1;durP2;ratioP2;P2;SDS_P1;SDS_P2;PMS_P1;PMS_P2;Temp;Humidity;BMP_temperature;BMP_pressure;BME280_temperature;BME280_humidity;BME280_pressure;Samples;Min_cycle;Max_cycle;Signal;HPM_P1;HPM_P2
2022/02/06 00:03:14;;;;;;;7.03;6.03;;;;;;;;;;6250919;28;20521;-65
2022/02/06 00:06:35;;;;;;;7.30;6.20;;;;;;;;;;6238195;28;20326;-64
2022/02/06 00:09:56;;;;;;;6.87;5.20;;;;;;;;;;6255521;28;20239;-66
2022/02/06 00:13:17;;;;;;;5.67;5.27;;;;;;;;;;6251913;28;20228;-66
2022/02/06 00:16:39;;;;;;;6.57;5.97;;;;;;;;;;6256575;28;20513;-66
2022/02/06 00:19:59;;;;;;;5.63;5.23;;;;;;;;;;6245879;28;20751;-66
2022/02/06 00:23:23;;;;;;;5.43;5.03;;;;;;;;;;6253820;28;20788;-65
2022/02/06 00:26:55;;;;;;;5.07;4.67;;;;;;;;;;6252922;28;20514;-66
2022/02/06 00:30:24;;;;;;;4.60;4.30;;;;;;;;;;6247298;28;20220;-66
2022/02/06 00:34:14;;;;;;;6.47;5.87;;;;;;;;;;6256317;28;20247;-66
2022/02/06 00:41:14;;;;;;;5.07;4.67;;;;;;;;;;6256323;28;20228;-65
2022/02/06 00:44:35;;;;;;;5.27;4.80;;;;;;;;;;6259775;28;20223;-66
2022/02/06 00:47:56;;;;;;;9.03;5.53;;;;;;;;;;6259487;28;20334;-65
2022/02/06 00:51:26;;;;;;;4.00;3.70;;;;;;;;;;6255196;28;20224;-66
2022/02/06 00:54:47;;;;;;;5.27;4.80;;;;;;;;;;6242005;28;20342;-66
2022/02/06 00:58:07;;;;;;;5.37;4.93;;;;;;;;;;6262308;28;20326;-65
2022/02/06 01:01:29;;;;;;;5.83;4.43;;;;;;;;;;6247369;28;20699;-65
2022/02/06 01:04:50;;;;;;;5.13;4.73;;;;;;;;;;6247539;28;20228;-64
2022/02/06 01:08:12;;;;;;;5.67;5.27;;;;;;;;;;6253240;28;20223;-66
2022/02/06 01:11:36;;;;;;;7.23;5.33;;;;;;;;;;6246628;28;20227;-65
2022/02/06 01:15:05;;;;;;;5.50;5.00;;;;;;;;;;6243878;28;20549;-65
2022/02/06 01:18:32;;;;;;;4.20;3.90;;;;;;;;;;6253219;28;20500;-66
2022/02/06 01:21:59;;;;;;;6.17;4.67;;;;;;;;;;6254074;28;20228;-66
2022/02/06 01:25:26;;;;;;;4.97;4.57;;;;;;;;;;6256878;28;20625;-64
2022/02/06 01:28:53;;;;;;;4.67;4.27;;;;;;;;;;6253368;28;20226;-64
2022/02/06 01:32:17;;;;;;;5.17;4.67;;;;;;;;;;6255997;28;20310;-66
2022/02/06 01:35:43;;;;;;;4.90;4.50;;;;;;;;;;6256553;28;20227;-65
2022/02/06 01:39:12;;;;;;;4.67;4.27;;;;;;;;;;6251323;28;20235;-63
2022/02/06 01:42:40;;;;;;;5.73;5.10;;;;;;;;;;6255443;28;20235;-65
2022/02/06 01:46:18;;;;;;;6.40;4.53;;;;;;;;;;6253940;28;20239;-64
2022/02/06 02:01:11;;;;;;;4.60;4.13;;;;;;;;;;6202936;28;20230;-66
2022/02/06 02:04:40;;;;;;;4.50;4.00;;;;;;;;;;6254185;28;20258;-65
2022/02/06 02:08:26;;;;;;;4.17;3.97;;;;;;;;;;6251593;28;20227;-64
2022/02/06 02:12:03;;;;;;;3.90;3.60;;;;;;;;;;6245304;28;20235;-65
2022/02/06 02:15:59;;;;;;;4.63;4.30;;;;;;;;;;6251896;28;20223;-65
2022/02/06 02:19:49;;;;;;;5.10;3.70;;;;;;;;;;6251566;28;20755;-64
2022/02/06 02:23:37;;;;;;;5.23;4.83;;;;;;;;;;6255498;28;20232;-64
2022/02/06 02:27:13;;;;;;;3.83;3.43;;;;;;;;;;6253723;28;20224;-65
2022/02/06 02:31:05;;;;;;;3.70;3.40;;;;;;;;;;6249740;28;20237;-65
2022/02/06 02:45:36;;;;;;;7.90;4.10;;;;;;;;;;6227688;28;20232;-64
2022/02/06 02:48:58;;;;;;;3.60;3.30;;;;;;;;;;6232713;28;20232;-64
2022/02/06 02:52:34;;;;;;;4.23;3.83;;;;;;;;;;6228574;28;20599;-65
2022/02/06 02:56:06;;;;;;;2.87;2.67;;;;;;;;;;6236993;28;20679;-65
2022/02/06 02:59:38;;;;;;;4.03;3.73;;;;;;;;;;6230533;28;20260;-66
2022/02/06 03:03:09;;;;;;;5.07;3.90;;;;;;;;;;6240696;28;20235;-66
2022/02/06 03:06:29;;;;;;;3.77;3.47;;;;;;;;;;6253217;28;20227;-64
2022/02/06 03:09:50;;;;;;;4.57;3.60;;;;;;;;;;6245264;28;20232;-65
2022/02/06 03:13:14;;;;;;;3.40;3.10;;;;;;;;;;6251846;28;20223;-66
2022/02/06 03:16:43;;;;;;;3.27;3.07;;;;;;;;;;6247666;28;20332;-65
2022/02/06 03:20:08;;;;;;;3.43;3.13;;;;;;;;;;6251540;28;20618;-65
2022/02/06 03:23:29;;;;;;;3.53;3.23;;;;;;;;;;6255481;28;20231;-65
2022/02/06 03:26:51;;;;;;;4.10;3.80;;;;;;;;;;6251479;28;20231;-65
2022/02/06 03:30:11;;;;;;;3.97;2.97;;;;;;;;;;6252956;28;20227;-64
2022/02/06 03:33:33;;;;;;;3.97;3.37;;;;;;;;;;6229361;28;20224;-67
2022/02/06 03:36:54;;;;;;;3.90;3.60;;;;;;;;;;6257939;28;20231;-64
2022/02/06 03:40:21;;;;;;;9.27;5.40;;;;;;;;;;6250111;28;22274;-66
2022/02/06 03:43:51;;;;;;;3.20;2.90;;;;;;;;;;6254619;28;20235;-66
2022/02/06 03:47:17;;;;;;;4.03;3.57;;;;;;;;;;6252201;28;20310;-66
2022/02/06 03:50:45;;;;;;;4.67;3.43;;;;;;;;;;6244226;28;20225;-64
2022/02/06 03:54:07;;;;;;;3.50;3.13;;;;;;;;;;6232842;28;20235;-65
2022/02/06 03:57:28;;;;;;;4.07;3.77;;;;;;;;;;6254595;28;20227;-65
2022/02/06 04:00:48;;;;;;;3.43;3.23;;;;;;;;;;6220814;28;20252;-64
2022/02/06 04:04:09;;;;;;;3.20;2.40;;;;;;;;;;6233753;28;20566;-65
2022/02/06 04:07:31;;;;;;;3.23;2.87;;;;;;;;;;6230065;28;20232;-65
2022/02/06 04:10:52;;;;;;;3.67;3.33;;;;;;;;;;6233293;28;20233;-65
2022/02/06 04:14:22;;;;;;;4.13;2.70;;;;;;;;;;6228681;28;20224;-64
2022/02/06 04:17:47;;;;;;;2.53;2.33;;;;;;;;;;6230901;28;20239;-65
2022/02/06 04:21:08;;;;;;;2.60;2.33;;;;;;;;;;6235997;28;20237;-65
2022/02/06 04:24:30;;;;;;;2.80;2.30;;;;;;;;;;6233255;28;20487;-65
2022/02/06 04:27:50;;;;;;;2.73;2.50;;;;;;;;;;6244914;28;20260;-66
2022/02/06 04:31:11;;;;;;;3.30;2.70;;;;;;;;;;6235404;28;20235;-65
2022/02/06 04:34:32;;;;;;;2.70;2.50;;;;;;;;;;6231989;28;20228;-64
2022/02/06 04:38:06;;;;;;;3.70;3.37;;;;;;;;;;6231649;28;20232;-65
2022/02/06 04:41:47;;;;;;;3.00;2.80;;;;;;;;;;6230935;28;20224;-64
2022/02/06 04:45:36;;;;;;;2.70;2.50;;;;;;;;;;6235868;28;20237;-65
2022/02/06 04:49:32;;;;;;;3.47;3.23;;;;;;;;;;6232035;28;20228;-65
2022/02/06 04:53:18;;;;;;;2.87;2.67;;;;;;;;;;6234857;28;20653;-65
2022/02/06 05:15:13;;;;;;;4.50;3.90;;;;;;;;;;6256293;28;20224;-66
2022/02/06 05:19:03;;;;;;;3.97;3.67;;;;;;;;;;6255886;28;20253;-66
2022/02/06 05:22:40;;;;;;;4.30;3.90;;;;;;;;;;6258056;28;20228;-65
2022/02/06 05:29:56;;;;;;;2.77;2.57;;;;;;;;;;6256017;28;20252;-65
2022/02/06 05:33:18;;;;;;;3.47;3.20;;;;;;;;;;6257707;28;20231;-65
2022/02/06 05:36:39;;;;;;;3.20;2.87;;;;;;;;;;6255706;28;20235;-66
2022/02/06 05:39:59;;;;;;;4.03;3.73;;;;;;;;;;6257039;28;22286;-65
2022/02/06 05:43:20;;;;;;;3.63;3.33;;;;;;;;;;6253236;28;20227;-65
2022/02/06 05:46:40;;;;;;;3.53;3.23;;;;;;;;;;6249674;28;20232;-67
2022/02/06 05:50:04;;;;;;;5.23;2.40;;;;;;;;;;6254578;28;20236;-64
2022/02/06 05:53:25;;;;;;;2.87;2.60;;;;;;;;;;6249795;28;20322;-65
2022/02/06 05:56:45;;;;;;;5.33;3.13;;;;;;;;;;6255469;28;20235;-65
2022/02/06 06:00:07;;;;;;;2.10;2.00;;;;;;;;;;6254760;28;20231;-64
2022/02/06 06:03:33;;;;;;;2.13;1.93;;;;;;;;;;6251705;28;20231;-64
2022/02/06 06:06:54;;;;;;;1.97;1.73;;;;;;;;;;6258766;28;20247;-64
2022/02/06 06:10:15;;;;;;;2.17;1.93;;;;;;;;;;6260335;28;20224;-65
2022/02/06 06:13:36;;;;;;;2.83;2.17;;;;;;;;;;6256035;28;20255;-65
2022/02/06 06:16:56;;;;;;;2.97;2.70;;;;;;;;;;6252590;28;20232;-64
2022/02/06 06:20:19;;;;;;;4.13;2.60;;;;;;;;;;6257010;28;20616;-65
2022/02/06 06:23:43;;;;;;;2.53;2.37;;;;;;;;;;6256082;28;20236;-65
2022/02/06 06:27:04;;;;;;;2.17;2.03;;;;;;;;;;6260507;28;20235;-65
2022/02/06 06:30:27;;;;;;;3.13;2.90;;;;;;;;;;6255489;28;20228;-65
2022/02/06 06:33:47;;;;;;;2.30;2.10;;;;;;;;;;6259845;28;20227;-65
2022/02/06 06:37:08;;;;;;;2.37;1.70;;;;;;;;;;6257343;28;20239;-65
2022/02/06 06:40:30;;;;;;;1.43;1.20;;;;;;;;;;6251780;28;20239;-65
2022/02/06 06:43:51;;;;;;;1.73;1.53;;;;;;;;;;6254096;28;20232;-66
2022/02/06 06:47:11;;;;;;;2.83;1.87;;;;;;;;;;6258833;28;20319;-64
2022/02/06 06:50:33;;;;;;;2.40;1.93;;;;;;;;;;6256348;28;20236;-65
2022/02/06 06:53:54;;;;;;;1.57;1.47;;;;;;;;;;6257720;28;20660;-65
2022/02/06 06:57:20;;;;;;;2.47;1.47;;;;;;;;;;6254654;28;20248;-65
2022/02/06 07:00:54;;;;;;;1.87;1.30;;;;;;;;;;6255050;28;20224;-65
2022/02/06 07:04:14;;;;;;;1.20;1.07;;;;;;;;;;6256348;28;20223;-66
2022/02/06 07:07:34;;;;;;;1.40;0.93;;;;;;;;;;6253815;28;20228;-64
2022/02/06 07:10:55;;;;;;;2.60;1.67;;;;;;;;;;6251223;28;20691;-65
2022/02/06 07:14:17;;;;;;;3.60;1.00;;;;;;;;;;6250767;28;20231;-65
2022/02/06 07:17:38;;;;;;;2.93;1.20;;;;;;;;;;6251286;28;20236;-66
2022/02/06 07:20:59;;;;;;;1.53;1.00;;;;;;;;;;6244232;28;20255;-65
2022/02/06 07:24:21;;;;;;;1.43;1.10;;;;;;;;;;6245506;28;20256;-64
2022/02/06 07:27:46;;;;;;;2.13;0.90;;;;;;;;;;6254080;28;20236;-65
2022/02/06 07:31:08;;;;;;;3.20;1.37;;;;;;;;;;6256063;28;20546;-65
2022/02/06 07:34:28;;;;;;;4.43;1.10;;;;;;;;;;6252762;28;20232;-65
2022/02/06 07:37:54;;;;;;;4.00;1.20;;;;;;;;;;6261909;28;20503;-65
2022/02/06 07:41:15;;;;;;;3.27;1.53;;;;;;;;;;6261445;28;20645;-64
2022/02/06 07:44:35;;;;;;;2.10;1.10;;;;;;;;;;6261687;28;20231;-64
2022/02/06 07:47:57;;;;;;;3.00;1.53;;;;;;;;;;6238663;28;20232;-64
2022/02/06 07:51:18;;;;;;;2.83;0.83;;;;;;;;;;6235730;28;20228;-65
2022/02/06 07:54:38;;;;;;;2.43;0.93;;;;;;;;;;6236730;28;20236;-66
2022/02/06 07:57:59;;;;;;;1.33;1.23;;;;;;;;;;6237147;28;20236;-64
2022/02/06 08:01:20;;;;;;;1.87;0.80;;;;;;;;;;6236568;28;20224;-65
2022/02/06 08:04:44;;;;;;;0.77;0.77;;;;;;;;;;6256529;28;20430;-65
2022/02/06 08:08:12;;;;;;;0.57;0.57;;;;;;;;;;6259718;28;20231;-65
2022/02/06 08:11:36;;;;;;;0.70;0.70;;;;;;;;;;6234471;28;20232;-67
2022/02/06 08:14:57;;;;;;;1.80;0.77;;;;;;;;;;6237259;28;20224;-66
2022/02/06 08:18:18;;;;;;;1.20;0.70;;;;;;;;;;6237811;28;20327;-64
2022/02/06 08:21:40;;;;;;;2.37;0.70;;;;;;;;;;6228856;28;20233;-65
2022/02/06 08:25:01;;;;;;;1.57;0.70;;;;;;;;;;6237715;28;20318;-65
2022/02/06 08:28:21;;;;;;;1.83;0.90;;;;;;;;;;6235309;28;20232;-65
2022/02/06 08:31:42;;;;;;;0.73;0.73;;;;;;;;;;6234926;28;20221;-65
2022/02/06 08:35:02;;;;;;;0.50;0.50;;;;;;;;;;6237161;28;20614;-65
2022/02/06 08:38:24;;;;;;;0.70;0.70;;;;;;;;;;6240067;28;20339;-65
2022/02/06 08:41:45;;;;;;;0.73;0.57;;;;;;;;;;6238260;28;20220;-64
2022/02/06 08:45:06;;;;;;;0.40;0.40;;;;;;;;;;6238508;28;20308;-65
2022/02/06 08:48:27;;;;;;;0.57;0.57;;;;;;;;;;6256559;28;20243;-64
2022/02/06 08:51:48;;;;;;;1.23;0.77;;;;;;;;;;6257909;28;20230;-65
2022/02/06 08:55:12;;;;;;;1.00;0.70;;;;;;;;;;6256907;28;20251;-65
2022/02/06 08:58:32;;;;;;;1.83;0.90;;;;;;;;;;6258595;28;20236;-66
2022/02/06 09:01:53;;;;;;;1.27;0.90;;;;;;;;;;6237091;28;20232;-65
2022/02/06 09:05:14;;;;;;;1.30;0.80;;;;;;;;;;6235363;28;20228;-65
2022/02/06 09:08:35;;;;;;;1.00;0.90;;;;;;;;;;6235109;28;20225;-66
2022/02/06 09:11:59;;;;;;;1.13;1.03;;;;;;;;;;6233954;28;20236;-66
2022/02/06 09:15:20;;;;;;;4.70;1.20;;;;;;;;;;6235629;28;20225;-65
2022/02/06 09:18:40;;;;;;;0.83;0.83;;;;;;;;;;6233066;28;20228;-64
2022/02/06 09:22:01;;;;;;;0.80;0.80;;;;;;;;;;6232530;28;20319;-66
2022/02/06 09:25:22;;;;;;;0.93;0.93;;;;;;;;;;6233086;28;20614;-65
2022/02/06 09:28:44;;;;;;;2.03;0.63;;;;;;;;;;6238869;28;20224;-66
2022/02/06 09:35:30;;;;;;;0.80;0.77;;;;;;;;;;6258611;28;20629;-67
2022/02/06 09:38:51;;;;;;;1.27;0.70;;;;;;;;;;6235443;28;20228;-67
2022/02/06 09:42:12;;;;;;;1.43;0.70;;;;;;;;;;6249637;28;20236;-65
2022/02/06 09:45:38;;;;;;;1.07;0.60;;;;;;;;;;6260284;28;20232;-67
2022/02/06 09:48:58;;;;;;;1.27;1.17;;;;;;;;;;6255014;28;20236;-65
2022/02/06 09:52:25;;;;;;;2.60;0.80;;;;;;;;;;6249689;28;20228;-66
2022/02/06 09:55:46;;;;;;;1.97;1.10;;;;;;;;;;6234940;28;20437;-66
2022/02/06 09:59:17;;;;;;;1.53;0.60;;;;;;;;;;6239149;28;20499;-65
2022/02/06 10:02:47;;;;;;;1.00;0.73;;;;;;;;;;6438225;22;20973;-66
2022/02/06 10:06:10;;;;;;;1.10;1.03;;;;;;;;;;6255459;28;20224;-68
2022/02/06 10:09:32;;;;;;;1.27;0.90;;;;;;;;;;6252551;28;20232;-65
2022/02/06 10:12:54;;;;;;;1.33;1.23;;;;;;;;;;6258051;28;20495;-66
2022/02/06 10:16:16;;;;;;;1.30;1.00;;;;;;;;;;6256756;28;20243;-64
2022/02/06 10:19:49;;;;;;;0.70;0.70;;;;;;;;;;6251015;28;21920;-65
2022/02/06 10:23:20;;;;;;;1.53;1.27;;;;;;;;;;6253254;28;20231;-65
2022/02/06 10:26:52;;;;;;;2.23;1.47;;;;;;;;;;6251718;28;20235;-64
2022/02/06 10:30:19;;;;;;;1.17;1.10;;;;;;;;;;6250036;28;20322;-66
2022/02/06 10:33:44;;;;;;;1.37;1.30;;;;;;;;;;6255690;28;20236;-64
2022/02/06 10:37:11;;;;;;;3.47;1.20;;;;;;;;;;6261074;28;20231;-65
2022/02/06 10:40:31;;;;;;;0.87;0.80;;;;;;;;;;6254310;28;20227;-65
2022/02/06 10:43:56;;;;;;;1.43;1.30;;;;;;;;;;6259295;28;20543;-64
2022/02/06 10:47:30;;;;;;;1.37;1.17;;;;;;;;;;6257151;28;20232;-66
2022/02/06 10:50:51;;;;;;;1.50;1.23;;;;;;;;;;6258243;28;20215;-65
2022/02/06 10:54:13;;;;;;;1.83;1.67;;;;;;;;;;6251243;28;20963;-66
2022/02/06 10:57:35;;;;;;;2.50;1.03;;;;;;;;;;6252645;28;20314;-65
2022/02/06 11:00:56;;;;;;;1.60;1.50;;;;;;;;;;6251919;28;20244;-66
2022/02/06 11:04:18;;;;;;;1.73;1.57;;;;;;;;;;6231759;28;20255;-66
2022/02/06 11:07:39;;;;;;;2.57;1.93;;;;;;;;;;6229705;28;21967;-65
2022/02/06 11:11:01;;;;;;;1.70;1.60;;;;;;;;;;6222369;28;20240;-65
2022/02/06 11:14:22;;;;;;;2.67;1.67;;;;;;;;;;6225159;28;20224;-66
2022/02/06 11:17:43;;;;;;;1.77;1.57;;;;;;;;;;6229373;28;20502;-65
2022/02/06 11:21:04;;;;;;;4.17;2.13;;;;;;;;;;6232154;28;22230;-66
2022/02/06 11:24:26;;;;;;;1.33;1.13;;;;;;;;;;6216975;28;20319;-65
2022/02/06 11:27:48;;;;;;;1.00;1.00;;;;;;;;;;6228037;28;20236;-65
2022/02/06 11:31:08;;;;;;;1.13;1.03;;;;;;;;;;6228224;28;20256;-66
2022/02/06 11:34:29;;;;;;;0.80;0.80;;;;;;;;;;6231734;28;20236;-65
2022/02/06 11:45:19;;;;;;;1.33;1.23;;;;;;;;;;6234869;28;20319;-67
2022/02/06 11:48:40;;;;;;;1.40;1.27;;;;;;;;;;6230645;28;20236;-65
2022/02/06 11:52:00;;;;;;;1.60;1.40;;;;;;;;;;6233494;28;20248;-65
2022/02/06 11:55:37;;;;;;;0.80;0.80;;;;;;;;;;6234441;28;20259;-65
2022/02/06 11:59:03;;;;;;;0.60;0.60;;;;;;;;;;6226790;28;20232;-65
2022/02/06 12:02:28;;;;;;;1.07;0.67;;;;;;;;;;6225075;28;20236;-66
2022/02/06 12:05:59;;;;;;;1.83;1.23;;;;;;;;;;6230315;28;20236;-65
2022/02/06 12:09:21;;;;;;;0.80;0.63;;;;;;;;;;6231501;28;20232;-66
2022/02/06 12:12:41;;;;;;;0.87;0.73;;;;;;;;;;6232178;28;20319;-66
2022/02/06 12:16:04;;;;;;;0.50;0.50;;;;;;;;;;6228487;28;20229;-66
2022/02/06 12:19:27;;;;;;;0.73;0.73;;;;;;;;;;6234101;28;20228;-65
2022/02/06 12:22:49;;;;;;;1.10;0.90;;;;;;;;;;6231655;28;20580;-65
2022/02/06 12:26:30;;;;;;;0.60;0.60;;;;;;;;;;6236290;28;20228;-66
2022/02/06 12:29:52;;;;;;;1.80;1.57;;;;;;;;;;6236988;28;20255;-65
2022/02/06 12:33:23;;;;;;;0.83;0.80;;;;;;;;;;6235455;28;20232;-65
2022/02/06 12:37:07;;;;;;;0.90;0.90;;;;;;;;;;6239696;28;20457;-65
2022/02/06 12:40:28;;;;;;;0.47;0.47;;;;;;;;;;6236232;28;20240;-66
2022/02/06 12:43:53;;;;;;;0.50;0.50;;;;;;;;;;6237952;28;20493;-65
2022/02/06 12:47:15;;;;;;;0.47;0.40;;;;;;;;;;6237988;28;20240;-65
2022/02/06 12:50:36;;;;;;;1.40;0.60;;;;;;;;;;6239742;28;20244;-68
2022/02/06 12:54:03;;;;;;;1.60;1.03;;;;;;;;;;6242173;28;20232;-67
2022/02/06 12:57:24;;;;;;;0.60;0.60;;;;;;;;;;6238718;28;20228;-66
2022/02/06 13:00:47;;;;;;;0.60;0.60;;;;;;;;;;6243180;28;20255;-66
2022/02/06 13:04:09;;;;;;;1.70;0.70;;;;;;;;;;6242343;28;20229;-65
2022/02/06 13:07:30;;;;;;;0.90;0.90;;;;;;;;;;6234154;28;21008;-65
2022/02/06 13:10:54;;;;;;;0.97;0.60;;;;;;;;;;6236894;28;20518;-66
2022/02/06 13:14:22;;;;;;;1.60;0.83;;;;;;;;;;6239360;28;20250;-67
2022/02/06 13:18:03;;;;;;;0.60;0.60;;;;;;;;;;6234238;28;20266;-66
2022/02/06 13:21:44;;;;;;;0.60;0.60;;;;;;;;;;6236326;28;20730;-66
2022/02/06 13:25:27;;;;;;;2.47;1.67;;;;;;;;;;6245451;28;20822;-64
2022/02/06 13:28:57;;;;;;;1.83;1.73;;;;;;;;;;6240101;28;20236;-66
2022/02/06 13:32:25;;;;;;;0.80;0.80;;;;;;;;;;6236563;28;20236;-66
2022/02/06 13:35:56;;;;;;;1.73;1.50;;;;;;;;;;6238406;28;20495;-65
2022/02/06 13:39:24;;;;;;;0.83;0.83;;;;;;;;;;6239505;28;20232;-66
2022/02/06 13:42:58;;;;;;;1.10;0.80;;;;;;;;;;6239301;28;20596;-66
2022/02/06 13:46:23;;;;;;;0.80;0.70;;;;;;;;;;6232820;28;20526;-66
2022/02/06 13:49:48;;;;;;;0.70;0.70;;;;;;;;;;6233608;28;20336;-66
2022/02/06 13:53:10;;;;;;;1.10;1.00;;;;;;;;;;6227827;28;20236;-66
2022/02/06 13:56:31;;;;;;;1.33;0.70;;;;;;;;;;6225409;28;20602;-65
2022/02/06 13:59:52;;;;;;;1.10;0.97;;;;;;;;;;6234907;28;20244;-66
2022/02/06 14:03:14;;;;;;;0.70;0.70;;;;;;;;;;6235317;28;20496;-66
2022/02/06 14:06:36;;;;;;;1.70;1.43;;;;;;;;;;6238725;28;20225;-66
2022/02/06 14:10:06;;;;;;;1.60;1.50;;;;;;;;;;6241079;28;20605;-66
2022/02/06 14:13:28;;;;;;;1.07;0.87;;;;;;;;;;6233881;28;20232;-66
2022/02/06 14:16:49;;;;;;;3.23;1.30;;;;;;;;;;6227894;28;20265;-67
2022/02/06 14:20:12;;;;;;;1.57;1.27;;;;;;;;;;6232690;28;20228;-67
2022/02/06 14:23:33;;;;;;;1.67;1.57;;;;;;;;;;6222553;28;20256;-67
2022/02/06 14:27:00;;;;;;;1.30;1.20;;;;;;;;;;6228081;28;20228;-70
2022/02/06 14:30:22;;;;;;;1.00;1.00;;;;;;;;;;6236497;28;20731;-69
2022/02/06 14:33:44;;;;;;;0.93;0.80;;;;;;;;;;6231348;28;20236;-69
2022/02/06 14:37:09;;;;;;;0.77;0.77;;;;;;;;;;6233491;28;20229;-69
2022/02/06 14:40:38;;;;;;;1.43;1.30;;;;;;;;;;6237163;28;20259;-69
2022/02/06 14:44:00;;;;;;;0.73;0.73;;;;;;;;;;6236078;28;20224;-68
2022/02/06 14:47:21;;;;;;;1.47;1.33;;;;;;;;;;6225075;28;20232;-68
2022/02/06 14:50:44;;;;;;;0.80;0.70;;;;;;;;;;6235553;28;20227;-67
2022/02/06 14:54:08;;;;;;;1.07;1.00;;;;;;;;;;6231967;28;20228;-67
2022/02/06 14:57:29;;;;;;;0.90;0.90;;;;;;;;;;6230917;28;21112;-67
2022/02/06 15:00:50;;;;;;;1.00;0.80;;;;;;;;;;6234059;28;20620;-66
2022/02/06 15:04:13;;;;;;;1.30;0.90;;;;;;;;;;6230033;28;20938;-65
2022/02/06 15:07:33;;;;;;;0.90;0.87;;;;;;;;;;6231527;28;21812;-66
2022/02/06 15:10:55;;;;;;;1.37;1.20;;;;;;;;;;6233778;28;20515;-65
2022/02/06 15:14:16;;;;;;;1.33;1.00;;;;;;;;;;6232004;28;20236;-67
2022/02/06 15:17:37;;;;;;;1.63;1.40;;;;;;;;;;6229337;28;20224;-66
2022/02/06 15:20:58;;;;;;;2.03;1.63;;;;;;;;;;6229810;28;20244;-66
2022/02/06 15:24:19;;;;;;;2.27;1.47;;;;;;;;;;6249161;28;20239;-67
2022/02/06 15:27:41;;;;;;;1.83;1.10;;;;;;;;;;6217299;28;20377;-67
2022/02/06 15:31:01;;;;;;;2.83;1.10;;;;;;;;;;6211803;28;21243;-67
2022/02/06 15:34:22;;;;;;;1.30;1.00;;;;;;;;;;6213300;28;20689;-69
2022/02/06 15:37:43;;;;;;;2.07;1.60;;;;;;;;;;6211933;28;20232;-67
2022/02/06 15:41:03;;;;;;;4.20;1.30;;;;;;;;;;6211940;28;20233;-65
2022/02/06 15:44:25;;;;;;;2.40;1.33;;;;;;;;;;6213739;28;20318;-65
2022/02/06 15:47:46;;;;;;;3.70;1.23;;;;;;;;;;6203116;28;20565;-67
2022/02/06 15:51:07;;;;;;;11.33;3.40;;;;;;;;;;6227274;28;20582;-65
2022/02/06 15:54:28;;;;;;;4.07;1.73;;;;;;;;;;6230809;28;20617;-65
2022/02/06 15:57:48;;;;;;;7.43;3.33;;;;;;;;;;6236405;28;20228;-66
2022/02/06 16:01:10;;;;;;;5.50;2.10;;;;;;;;;;6223670;28;20229;-65
2022/02/06 16:04:30;;;;;;;9.37;2.30;;;;;;;;;;6228525;28;20236;-65
2022/02/06 16:07:51;;;;;;;7.03;1.87;;;;;;;;;;6234397;28;20229;-66
2022/02/06 16:11:11;;;;;;;8.07;3.03;;;;;;;;;;6231518;28;20220;-66
2022/02/06 16:14:32;;;;;;;2.77;1.50;;;;;;;;;;6233963;28;20682;-65
2022/02/06 16:17:54;;;;;;;6.00;2.50;;;;;;;;;;6230442;28;20224;-65
2022/02/06 16:21:14;;;;;;;6.13;2.80;;;;;;;;;;6234090;28;20605;-67
2022/02/06 16:24:37;;;;;;;5.40;2.27;;;;;;;;;;6224685;28;20237;-65
2022/02/06 16:27:57;;;;;;;10.27;2.90;;;;;;;;;;6225039;28;20225;-67
2022/02/06 16:31:18;;;;;;;6.60;3.27;;;;;;;;;;6230660;28;20228;-66
2022/02/06 16:34:40;;;;;;;5.40;2.63;;;;;;;;;;6227134;28;20233;-66
2022/02/06 16:38:01;;;;;;;7.13;2.27;;;;;;;;;;6228759;28;20228;-65
2022/02/06 16:41:21;;;;;;;5.23;2.30;;;;;;;;;;6226716;28;20768;-67
2022/02/06 16:44:42;;;;;;;9.13;2.97;;;;;;;;;;6244269;28;20232;-66
2022/02/06 16:48:02;;;;;;;6.67;2.63;;;;;;;;;;6239753;28;20816;-65
2022/02/06 16:51:24;;;;;;;7.93;2.47;;;;;;;;;;6228533;28;20237;-69
2022/02/06 16:54:44;;;;;;;6.53;3.17;;;;;;;;;;6230495;28;20870;-63
2022/02/06 16:58:05;;;;;;;8.37;2.10;;;;;;;;;;6231187;28;20225;-70
2022/02/06 17:01:25;;;;;;;6.23;2.87;;;;;;;;;;6234490;28;20323;-69
2022/02/06 17:04:46;;;;;;;5.77;1.80;;;;;;;;;;6240219;28;20231;-66
2022/02/06 17:08:08;;;;;;;11.00;2.70;;;;;;;;;;6234389;28;20645;-65
2022/02/06 17:11:29;;;;;;;10.17;2.60;;;;;;;;;;6225701;28;20233;-67
2022/02/06 17:14:49;;;;;;;7.10;2.97;;;;;;;;;;6231752;28;20374;-67
2022/02/06 17:18:10;;;;;;;3.17;2.00;;;;;;;;;;6232486;28;20236;-67
2022/02/06 17:21:30;;;;;;;7.30;2.30;;;;;;;;;;6229785;28;20728;-67
2022/02/06 17:24:53;;;;;;;9.77;3.10;;;;;;;;;;6231978;28;20237;-66
2022/02/06 17:28:13;;;;;;;4.80;1.93;;;;;;;;;;6233055;28;20492;-66
2022/02/06 17:31:33;;;;;;;8.90;2.73;;;;;;;;;;6224951;28;20255;-66
2022/02/06 17:34:54;;;;;;;5.77;2.77;;;;;;;;;;6234077;28;20229;-65
2022/02/06 17:38:15;;;;;;;4.77;2.13;;;;;;;;;;6229108;28;20263;-66
2022/02/06 17:41:37;;;;;;;7.27;3.03;;;;;;;;;;6214719;28;20601;-65
2022/02/06 17:45:02;;;;;;;9.37;2.60;;;;;;;;;;6239566;28;20228;-65
2022/02/06 17:48:23;;;;;;;4.00;2.60;;;;;;;;;;6234819;28;20629;-66
2022/02/06 17:51:44;;;;;;;5.53;1.90;;;;;;;;;;6236422;28;20239;-67
2022/02/06 17:55:06;;;;;;;3.10;1.30;;;;;;;;;;6223297;28;20316;-67
2022/02/06 17:58:28;;;;;;;3.27;1.80;;;;;;;;;;6237366;28;20235;-64
2022/02/06 18:01:48;;;;;;;3.23;2.23;;;;;;;;;;6236542;28;20327;-65
2022/02/06 18:05:10;;;;;;;5.67;2.17;;;;;;;;;;6231421;28;20232;-65
2022/02/06 18:08:33;;;;;;;2.60;1.60;;;;;;;;;;6236034;28;20232;-65
2022/02/06 18:11:54;;;;;;;5.60;2.20;;;;;;;;;;6236102;28;20236;-63
2022/02/06 18:15:16;;;;;;;7.57;2.57;;;;;;;;;;6231470;28;20400;-65
2022/02/06 18:18:36;;;;;;;13.10;3.20;;;;;;;;;;6231575;28;20315;-66
2022/02/06 18:21:57;;;;;;;6.83;2.50;;;;;;;;;;6235148;28;20241;-66
2022/02/06 18:25:18;;;;;;;5.00;2.80;;;;;;;;;;6228553;28;20249;-65
2022/02/06 18:28:39;;;;;;;5.50;1.90;;;;;;;;;;6225242;28;20254;-66
2022/02/06 18:32:01;;;;;;;5.53;2.50;;;;;;;;;;6234563;28;20264;-65
2022/02/06 18:35:21;;;;;;;5.40;3.30;;;;;;;;;;6229026;28;20232;-66
2022/02/06 18:38:42;;;;;;;6.40;2.93;;;;;;;;;;6224092;28;20236;-65
2022/02/06 18:42:03;;;;;;;6.10;2.10;;;;;;;;;;6224896;28;20240;-66
2022/02/06 18:45:23;;;;;;;11.83;2.90;;;;;;;;;;6220414;28;20344;-65
2022/02/06 18:48:45;;;;;;;9.10;3.20;;;;;;;;;;6228333;28;20311;-66
2022/02/06 18:52:07;;;;;;;7.67;2.37;;;;;;;;;;6221302;28;20243;-66
2022/02/06 18:55:28;;;;;;;9.93;3.40;;;;;;;;;;6218420;28;20232;-66
2022/02/06 18:58:49;;;;;;;7.93;3.43;;;;;;;;;;6239942;28;20232;-66
2022/02/06 19:02:09;;;;;;;5.37;2.50;;;;;;;;;;6225066;28;20232;-66
2022/02/06 19:05:35;;;;;;;7.30;2.67;;;;;;;;;;6226804;28;20340;-65
2022/02/06 19:08:56;;;;;;;5.67;2.13;;;;;;;;;;6225874;28;20276;-65
2022/02/06 19:12:18;;;;;;;7.90;2.57;;;;;;;;;;6221461;28;20240;-66
2022/02/06 19:15:38;;;;;;;7.93;2.67;;;;;;;;;;6229388;28;20225;-65
2022/02/06 19:18:59;;;;;;;4.67;2.50;;;;;;;;;;6229154;28;21600;-66
2022/02/06 19:22:21;;;;;;;5.53;2.50;;;;;;;;;;6223481;28;21009;-66
2022/02/06 19:25:47;;;;;;;6.00;2.33;;;;;;;;;;6214367;28;21085;-65
2022/02/06 19:29:08;;;;;;;9.27;2.30;;;;;;;;;;6224443;28;20240;-65
2022/02/06 19:32:29;;;;;;;6.67;1.97;;;;;;;;;;6217588;28;20224;-64
2022/02/06 19:35:53;;;;;;;10.77;2.67;;;;;;;;;;6222756;28;20224;-65
2022/02/06 19:39:16;;;;;;;5.13;2.27;;;;;;;;;;6220921;28;20232;-64
2022/02/06 19:42:37;;;;;;;5.03;1.97;;;;;;;;;;6220115;28;20604;-66
2022/02/06 19:45:58;;;;;;;5.57;2.07;;;;;;;;;;6226043;28;20240;-65
2022/02/06 19:49:19;;;;;;;7.10;2.17;;;;;;;;;;6221828;28;20491;-65
2022/02/06 19:52:40;;;;;;;8.03;3.43;;;;;;;;;;6217096;28;20406;-65
2022/02/06 19:56:02;;;;;;;5.33;2.10;;;;;;;;;;6220524;28;20224;-65
2022/02/06 19:59:23;;;;;;;6.03;1.67;;;;;;;;;;6221345;28;20320;-66
2022/02/06 20:02:45;;;;;;;4.93;2.20;;;;;;;;;;6215538;28;20248;-64
2022/02/06 20:06:06;;;;;;;6.70;2.73;;;;;;;;;;6218019;28;20579;-64
2022/02/06 20:09:26;;;;;;;4.90;2.17;;;;;;;;;;6226242;28;20260;-65
2022/02/06 20:12:49;;;;;;;6.50;2.57;;;;;;;;;;6220855;28;20816;-64
2022/02/06 20:16:12;;;;;;;1.63;1.13;;;;;;;;;;6220013;28;20224;-65
2022/02/06 20:19:32;;;;;;;2.43;1.03;;;;;;;;;;6218791;28;20807;-67
2022/02/06 20:22:53;;;;;;;2.33;1.20;;;;;;;;;;6218421;28;20233;-65
2022/02/06 20:26:13;;;;;;;7.63;3.10;;;;;;;;;;6220537;28;20253;-68
2022/02/06 20:29:36;;;;;;;1.37;1.20;;;;;;;;;;6209639;28;20552;-65
2022/02/06 20:33:02;;;;;;;2.37;1.00;;;;;;;;;;6217904;28;20221;-65
2022/02/06 20:36:23;;;;;;;1.83;0.70;;;;;;;;;;6224265;28;20233;-65
2022/02/06 20:39:43;;;;;;;1.23;1.13;;;;;;;;;;6217384;28;20228;-65
2022/02/06 20:43:04;;;;;;;2.10;1.30;;;;;;;;;;6220384;28;20602;-65
2022/02/06 20:46:27;;;;;;;1.17;1.00;;;;;;;;;;6217600;28;20323;-64
2022/02/06 20:49:48;;;;;;;2.80;1.20;;;;;;;;;;6223020;28;20236;-65
2022/02/06 20:53:08;;;;;;;1.93;1.10;;;;;;;;;;6225952;28;20629;-66
2022/02/06 20:56:29;;;;;;;2.13;1.50;;;;;;;;;;6231573;28;20237;-65
2022/02/06 20:59:49;;;;;;;4.37;2.67;;;;;;;;;;6226722;28;20236;-65
2022/02/06 21:03:11;;;;;;;5.10;1.53;;;;;;;;;;6229605;28;20665;-65
2022/02/06 21:06:31;;;;;;;3.03;2.03;;;;;;;;;;6225672;28;20228;-65
2022/02/06 21:09:52;;;;;;;2.10;1.20;;;;;;;;;;6225996;28;20236;-65
2022/02/06 21:13:13;;;;;;;1.93;1.00;;;;;;;;;;6222960;28;21074;-65
2022/02/06 21:16:33;;;;;;;3.70;1.70;;;;;;;;;;6223498;28;20229;-65
2022/02/06 21:19:55;;;;;;;4.43;1.27;;;;;;;;;;6225022;28;20229;-64
2022/02/06 21:23:16;;;;;;;2.17;1.37;;;;;;;;;;6218419;28;20236;-65